WetterOnline ( https://www.wetteronline.de )

Wetter aktuell Garmisch-Partenkirchen

Aktuelles Wetter: Garmisch-Partenkirchen (719m)

6-stündlich | Neueste Meldungen
Ortszeit Temperatur Wetter
Sa, 02.03. 19:00 6.3° C wolkenlos
Sa, 02.03. 13:00 12.2° C wolkig
Sa, 02.03. 7:00 2.8° C bedeckt
Sa, 02.03. 1:00 3.7° C bewölkt
Fr, 01.03. 19:00 4.9° C leichter Regen
Fr, 01.03. 13:00 6.9° C bedeckt
Fr, 01.03. 7:00 3.9° C bewölkt
Fr, 01.03. 1:00 1.5° C bedeckt
Ortszeit Temperatur Wetter
Sa, 02.03. 22:00 3.8° C bedeckt
Sa, 02.03. 21:30 4.0° C wolkig
Sa, 02.03. 21:20 4.0° C wolkig
Sa, 02.03. 21:10 4.1° C wolkig
Sa, 02.03. 21:00 3.6° C fast wolkenlos
Sa, 02.03. 20:50 3.6° C fast wolkenlos
Sa, 02.03. 20:30 4.7° C wolkig
Sa, 02.03. 20:00 5.0° C leicht bewölkt
Sa, 02.03. 19:30 5.3° C wolkig
Sa, 02.03. 19:00 6.3° C wolkenlos
Ortszeit Relative Feuchte Sichtweite
Sa, 02.03. 19:00 81% 65 km
Sa, 02.03. 13:00 59% >70 km
Sa, 02.03. 7:00 97% 12 km
Sa, 02.03. 1:00 95% 6 km
Fr, 01.03. 19:00 93% 9 km
Fr, 01.03. 13:00 78% 40 km
Fr, 01.03. 7:00 89% 30 km
Fr, 01.03. 1:00 94% 27 km
Ortszeit Relative Feuchte Sichtweite
Sa, 02.03. 22:00 86% 50 km
Sa, 02.03. 21:30 87% 50 km
Sa, 02.03. 21:20 87% -
Sa, 02.03. 21:10 87% -
Sa, 02.03. 21:00 91% 50 km
Sa, 02.03. 20:50 91% -
Sa, 02.03. 20:30 86% 55 km
Sa, 02.03. 20:00 86% 55 km
Sa, 02.03. 19:30 86% 55 km
Sa, 02.03. 19:00 81% 65 km
Ortszeit Niederschlagsmenge Niederschlagsart
Sa, 02.03. 19:00 0.0 l/m2 in 12 Std. -
Sa, 02.03. 13:00 0.1 l/m2 in 6 Std. -
Sa, 02.03. 7:00 0.2 l/m2 in 12 Std. -
Sa, 02.03. 1:00 0.2 l/m2 in 6 Std. Regen
Fr, 01.03. 19:00 2 l/m2 in 12 Std. Regen
Fr, 01.03. 13:00 0.3 l/m2 in 6 Std. Regen
Fr, 01.03. 7:00 0.0 l/m2 in 12 Std. -
Fr, 01.03. 1:00 0.0 l/m2 in 6 Std. -
Ortszeit Niederschlagsmenge Niederschlagsart
Sa, 02.03. 22:00 0.0 l/m2 in 1 Std. -
Sa, 02.03. 21:30 0.0 l/m2 in 30 Min -
Sa, 02.03. 21:20 keine Meldung -
Sa, 02.03. 21:10 keine Meldung -
Sa, 02.03. 21:00 0.0 l/m2 in 1 Std. -
Sa, 02.03. 20:50 keine Meldung -
Sa, 02.03. 20:30 0.0 l/m2 in 30 Min -
Sa, 02.03. 20:00 0.0 l/m2 in 1 Std. -
Sa, 02.03. 19:30 0.0 l/m2 in 30 Min -
Sa, 02.03. 19:00 0.0 l/m2 in 1 Std. -
Ortszeit Stärke Spitze Richtung
km/h Bft. km/h Grad Sektor
Sa, 02.03. 19:00 2 1 22 250° W
Sa, 02.03. 13:00 11 2 18 40° NO
Sa, 02.03. 7:00 0 0 7 - -
Sa, 02.03. 1:00 4 1 11 220° SW
Fr, 01.03. 19:00 6 1 15 100° O
Fr, 01.03. 13:00 6 1 11 100° O
Fr, 01.03. 7:00 4 1 11 10° N
Fr, 01.03. 1:00 4 1 11 230° SW
Ortszeit Stärke Spitze Richtung
km/h Bft. km/h Grad Sektor
Sa, 02.03. 22:00 0 0 14 - -
Sa, 02.03. 21:30 6 1 11 240° SW
Sa, 02.03. 21:20 6 1 - 240° SW
Sa, 02.03. 21:10 7 2 - 210° SW
Sa, 02.03. 21:00 4 1 11 230° SW
Sa, 02.03. 20:50 4 1 - 230° SW
Sa, 02.03. 20:30 7 2 11 220° SW
Sa, 02.03. 20:00 4 1 11 250° W
Sa, 02.03. 19:30 6 1 11 230° SW
Sa, 02.03. 19:00 2 1 9 250° W
Ortszeit Untergrenze Bedeckung Gattung
total tief tief mittel hoch
Sa, 02.03. 19:00 - 0/8 0/8 - - -
Sa, 02.03. 13:00 3300 m 8/8 8/8 - - -
Sa, 02.03. 7:00 2100 m 8/8 8/8 - - -
Sa, 02.03. 1:00 90 m 8/8 7/8 - - -
Fr, 01.03. 19:00 150 m 7/8 7/8 - - -
Fr, 01.03. 13:00 510 m 8/8 8/8 - - -
Fr, 01.03. 7:00 1500 m 8/8 6/8 - - -
Fr, 01.03. 1:00 5400 m 8/8 8/8 - - -
Ortszeit Bedeckungsgrad in Achtel und Wolkenuntergrenze
Sa, 02.03. 22:00 7(3600m) 8(4200m)
Sa, 02.03. 21:30 5(3600m) 7(8100m)
Sa, 02.03. 21:20 5(3600m) 7(8100m)
Sa, 02.03. 21:10 5
Sa, 02.03. 21:00 1(4500m)
Sa, 02.03. 20:50 1(4500m)
Sa, 02.03. 20:30 3(7800m) 7(8400m)
Sa, 02.03. 20:00 5(8700m)
Sa, 02.03. 19:30 7(9000m)
Sa, 02.03. 19:00 keine Wolken
Ortszeit Luftdruck NN (hPa) Tendenz (hPa in 3 Std.)
Sa, 02.03. 19:00 1004 + 0,3
Sa, 02.03. 13:00 1004 - 1,9
Sa, 02.03. 7:00 1009 + 1,2
Sa, 02.03. 1:00 1008 - 0,6
Fr, 01.03. 19:00 1009 + 0,1
Fr, 01.03. 13:00 1008 - 0,5
Fr, 01.03. 7:00 1009 + 1,7
Fr, 01.03. 1:00 1010 - 1,1
Ortszeit Luftdruck NN (hPa) Tendenz (hPa in 3 Std.)
Sa, 02.03. 22:00 1004 - 0,4
Sa, 02.03. 21:30 1004 - 0,1
Sa, 02.03. 21:20 1004 keine Meldung
Sa, 02.03. 21:10 1004 keine Meldung
Sa, 02.03. 21:00 1005 + 0,3
Sa, 02.03. 20:50 1005 keine Meldung
Sa, 02.03. 20:30 1005 + 0,8
Sa, 02.03. 20:00 1005 + 0,9
Sa, 02.03. 19:30 1004 + 0,8
Sa, 02.03. 19:00 1004 + 0,3
Ortszeit Schneehöhe (cm)
Sa, 02.03. 19:00 0
Sa, 02.03. 13:00 0
Sa, 02.03. 7:00 0
Sa, 02.03. 1:00 0
Fr, 01.03. 19:00 0
Fr, 01.03. 13:00 0
Fr, 01.03. 7:00 0
Fr, 01.03. 1:00 0
Ortszeit Schneehöhe (cm)
Sa, 02.03. 22:00 0
Sa, 02.03. 21:30 0
Sa, 02.03. 21:20 0
Sa, 02.03. 21:10 -
Sa, 02.03. 21:00 0
Sa, 02.03. 20:50 0
Sa, 02.03. 20:30 0
Sa, 02.03. 20:00 0
Sa, 02.03. 19:30 0
Sa, 02.03. 19:00 0
Link zu dieser Seite / Seite empfehlen

Das Wetter in ...